sensor_id;sensor_type;location;lat;lon;timestamp;temperature;humidity
47757;SHT35;22147;52.388;13.390;2023-02-28T00:00:51;0.68;79.92
47757;SHT35;22147;52.388;13.390;2023-02-28T00:03:21;0.69;79.86
47757;SHT35;22147;52.388;13.390;2023-02-28T00:05:51;0.74;79.91
47757;SHT35;22147;52.388;13.390;2023-02-28T00:08:21;0.71;79.83
47757;SHT35;22147;52.388;13.390;2023-02-28T00:10:51;0.75;79.84
47757;SHT35;22147;52.388;13.390;2023-02-28T00:13:21;0.84;79.77
47757;SHT35;22147;52.388;13.390;2023-02-28T00:16:22;0.86;79.31
47757;SHT35;22147;52.388;13.390;2023-02-28T00:18:51;0.88;79.28
47757;SHT35;22147;52.388;13.390;2023-02-28T00:21:20;0.85;79.42
47757;SHT35;22147;52.388;13.390;2023-02-28T00:23:49;0.79;79.49
47757;SHT35;22147;52.388;13.390;2023-02-28T00:26:17;0.78;79.51
47757;SHT35;22147;52.388;13.390;2023-02-28T00:28:52;0.88;79.37
47757;SHT35;22147;52.388;13.390;2023-02-28T00:31:23;0.95;78.87
47757;SHT35;22147;52.388;13.390;2023-02-28T00:33:53;0.95;78.90
47757;SHT35;22147;52.388;13.390;2023-02-28T00:36:23;0.99;78.95
47757;SHT35;22147;52.388;13.390;2023-02-28T00:38:53;1.00;78.84
47757;SHT35;22147;52.388;13.390;2023-02-28T00:41:23;1.00;78.78
47757;SHT35;22147;52.388;13.390;2023-02-28T00:43:53;1.02;78.55
47757;SHT35;22147;52.388;13.390;2023-02-28T00:46:23;0.96;78.88
47757;SHT35;22147;52.388;13.390;2023-02-28T00:48:54;0.91;78.99
47757;SHT35;22147;52.388;13.390;2023-02-28T00:51:24;0.89;79.22
47757;SHT35;22147;52.388;13.390;2023-02-28T00:53:54;0.88;79.24
47757;SHT35;22147;52.388;13.390;2023-02-28T00:56:24;0.85;79.48
47757;SHT35;22147;52.388;13.390;2023-02-28T00:58:54;0.79;79.52
47757;SHT35;22147;52.388;13.390;2023-02-28T01:01:24;0.81;79.74
47757;SHT35;22147;52.388;13.390;2023-02-28T01:03:54;0.78;79.81
47757;SHT35;22147;52.388;13.390;2023-02-28T01:06:24;0.79;79.84
47757;SHT35;22147;52.388;13.390;2023-02-28T01:08:52;0.75;79.93
47757;SHT35;22147;52.388;13.390;2023-02-28T01:11:21;0.76;79.95
47757;SHT35;22147;52.388;13.390;2023-02-28T01:13:50;0.78;79.88
47757;SHT35;22147;52.388;13.390;2023-02-28T01:16:18;0.78;79.83
47757;SHT35;22147;52.388;13.390;2023-02-28T01:18:46;0.76;79.85
47757;SHT35;22147;52.388;13.390;2023-02-28T01:21:20;0.75;80.05
47757;SHT35;22147;52.388;13.390;2023-02-28T01:23:51;0.76;80.01
47757;SHT35;22147;52.388;13.390;2023-02-28T01:26:23;0.82;79.86
47757;SHT35;22147;52.388;13.390;2023-02-28T01:28:53;0.79;79.81
47757;SHT35;22147;52.388;13.390;2023-02-28T01:31:25;0.75;80.14
47757;SHT35;22147;52.388;13.390;2023-02-28T01:33:55;0.71;80.09
47757;SHT35;22147;52.388;13.390;2023-02-28T01:36:26;0.68;80.12
47757;SHT35;22147;52.388;13.390;2023-02-28T01:38:56;0.66;80.29
47757;SHT35;22147;52.388;13.390;2023-02-28T01:41:32;0.62;80.59
47757;SHT35;22147;52.388;13.390;2023-02-28T01:44:54;0.58;80.80
47757;SHT35;22147;52.388;13.390;2023-02-28T01:47:36;0.54;80.83
47757;SHT35;22147;52.388;13.390;2023-02-28T01:50:19;0.51;80.96
47757;SHT35;22147;52.388;13.390;2023-02-28T01:52:53;0.47;81.13
47757;SHT35;22147;52.388;13.390;2023-02-28T01:55:27;0.43;81.15
47757;SHT35;22147;52.388;13.390;2023-02-28T01:58:04;0.44;81.22
47757;SHT35;22147;52.388;13.390;2023-02-28T02:00:34;0.40;81.28
47757;SHT35;22147;52.388;13.390;2023-02-28T02:03:13;0.36;81.58
47757;SHT35;22147;52.388;13.390;2023-02-28T02:05:43;0.31;81.64
47757;SHT35;22147;52.388;13.390;2023-02-28T02:08:26;0.36;81.67
47757;SHT35;22147;52.388;13.390;2023-02-28T02:11:02;0.27;81.76
47757;SHT35;22147;52.388;13.390;2023-02-28T02:14:21;0.26;81.79
47757;SHT35;22147;52.388;13.390;2023-02-28T02:36:41;-0.28;82.76
47757;SHT35;22147;52.388;13.390;2023-02-28T02:39:31;-0.31;82.81
47757;SHT35;22147;52.388;13.390;2023-02-28T02:46:08;-0.46;83.29
47757;SHT35;22147;52.388;13.390;2023-02-28T02:48:43;-0.58;83.46
47757;SHT35;22147;52.388;13.390;2023-02-28T02:51:21;-0.63;83.56
47757;SHT35;22147;52.388;13.390;2023-02-28T02:54:08;-0.73;83.77
47757;SHT35;22147;52.388;13.390;2023-02-28T02:56:46;-0.87;84.20
47757;SHT35;22147;52.388;13.390;2023-02-28T02:59:22;-0.91;84.27
47757;SHT35;22147;52.388;13.390;2023-02-28T03:02:02;-1.00;84.39
47757;SHT35;22147;52.388;13.390;2023-02-28T03:04:52;-1.05;84.57
47757;SHT35;22147;52.388;13.390;2023-02-28T03:07:22;-1.12;84.81
47757;SHT35;22147;52.388;13.390;2023-02-28T03:09:56;-1.21;85.31
47757;SHT35;22147;52.388;13.390;2023-02-28T03:13:00;-1.28;85.50
47757;SHT35;22147;52.388;13.390;2023-02-28T03:19:28;-1.38;85.67
47757;SHT35;22147;52.388;13.390;2023-02-28T03:28:19;-1.49;86.27
47757;SHT35;22147;52.388;13.390;2023-02-28T03:34:25;-1.52;86.65
47757;SHT35;22147;52.388;13.390;2023-02-28T03:37:10;-1.56;86.62
47757;SHT35;22147;52.388;13.390;2023-02-28T03:40:04;-1.58;86.53
47757;SHT35;22147;52.388;13.390;2023-02-28T03:42:43;-1.60;86.48
47757;SHT35;22147;52.388;13.390;2023-02-28T03:45:29;-1.62;86.44
47757;SHT35;22147;52.388;13.390;2023-02-28T03:48:45;-1.66;86.57
47757;SHT35;22147;52.388;13.390;2023-02-28T03:51:26;-1.72;86.55
47757;SHT35;22147;52.388;13.390;2023-02-28T03:54:10;-1.73;86.56
47757;SHT35;22147;52.388;13.390;2023-02-28T03:57:04;-1.75;86.65
47757;SHT35;22147;52.388;13.390;2023-02-28T03:59:52;-1.82;86.66
47757;SHT35;22147;52.388;13.390;2023-02-28T04:02:24;-1.86;86.72
47757;SHT35;22147;52.388;13.390;2023-02-28T04:04:54;-1.91;86.71
47757;SHT35;22147;52.388;13.390;2023-02-28T04:07:29;-1.96;86.78
47757;SHT35;22147;52.388;13.390;2023-02-28T04:10:00;-2.01;86.78
47757;SHT35;22147;52.388;13.390;2023-02-28T04:12:30;-2.04;86.94
47757;SHT35;22147;52.388;13.390;2023-02-28T04:15:00;-2.06;87.08
47757;SHT35;22147;52.388;13.390;2023-02-28T04:17:30;-2.10;87.14
47757;SHT35;22147;52.388;13.390;2023-02-28T04:20:00;-2.11;87.24
47757;SHT35;22147;52.388;13.390;2023-02-28T04:22:30;-2.17;87.28
47757;SHT35;22147;52.388;13.390;2023-02-28T04:25:00;-2.18;87.41
47757;SHT35;22147;52.388;13.390;2023-02-28T04:27:30;-2.21;87.57
47757;SHT35;22147;52.388;13.390;2023-02-28T04:30:01;-2.24;87.56
47757;SHT35;22147;52.388;13.390;2023-02-28T04:32:30;-2.28;87.60
47757;SHT35;22147;52.388;13.390;2023-02-28T04:35:00;-2.31;87.64
47757;SHT35;22147;52.388;13.390;2023-02-28T04:37:30;-2.36;87.67
47757;SHT35;22147;52.388;13.390;2023-02-28T04:40:05;-2.37;87.71
47757;SHT35;22147;52.388;13.390;2023-02-28T04:42:35;-2.41;87.82
47757;SHT35;22147;52.388;13.390;2023-02-28T04:45:07;-2.42;87.84
47757;SHT35;22147;52.388;13.390;2023-02-28T04:47:39;-2.42;88.05
47757;SHT35;22147;52.388;13.390;2023-02-28T04:50:10;-2.47;88.16
47757;SHT35;22147;52.388;13.390;2023-02-28T04:52:40;-2.49;88.26
47757;SHT35;22147;52.388;13.390;2023-02-28T04:55:10;-2.51;88.28
47757;SHT35;22147;52.388;13.390;2023-02-28T04:57:40;-2.57;88.34
47757;SHT35;22147;52.388;13.390;2023-02-28T05:00:12;-2.55;88.34
47757;SHT35;22147;52.388;13.390;2023-02-28T05:02:45;-2.58;88.36
47757;SHT35;22147;52.388;13.390;2023-02-28T05:05:15;-2.61;88.42
47757;SHT35;22147;52.388;13.390;2023-02-28T05:07:47;-2.66;88.48
47757;SHT35;22147;52.388;13.390;2023-02-28T05:10:18;-2.65;88.51
47757;SHT35;22147;52.388;13.390;2023-02-28T05:12:48;-2.68;88.59
47757;SHT35;22147;52.388;13.390;2023-02-28T05:15:18;-2.75;88.66
47757;SHT35;22147;52.388;13.390;2023-02-28T05:17:48;-2.73;88.70
47757;SHT35;22147;52.388;13.390;2023-02-28T05:20:18;-2.73;88.82
47757;SHT35;22147;52.388;13.390;2023-02-28T05:22:49;-2.79;88.85
47757;SHT35;22147;52.388;13.390;2023-02-28T05:25:21;-2.82;88.92
47757;SHT35;22147;52.388;13.390;2023-02-28T05:27:52;-2.83;88.98
47757;SHT35;22147;52.388;13.390;2023-02-28T05:30:22;-2.86;88.98
47757;SHT35;22147;52.388;13.390;2023-02-28T05:32:52;-2.90;89.03
47757;SHT35;22147;52.388;13.390;2023-02-28T05:35:23;-2.92;89.02
47757;SHT35;22147;52.388;13.390;2023-02-28T05:37:53;-2.95;89.12
47757;SHT35;22147;52.388;13.390;2023-02-28T05:40:23;-2.93;89.21
47757;SHT35;22147;52.388;13.390;2023-02-28T05:42:53;-2.95;89.24
47757;SHT35;22147;52.388;13.390;2023-02-28T05:45:23;-2.99;89.25
47757;SHT35;22147;52.388;13.390;2023-02-28T05:47:55;-3.00;89.35
47757;SHT35;22147;52.388;13.390;2023-02-28T05:50:25;-3.01;89.35
47757;SHT35;22147;52.388;13.390;2023-02-28T05:52:55;-3.01;89.37
47757;SHT35;22147;52.388;13.390;2023-02-28T05:55:25;-3.00;89.41
47757;SHT35;22147;52.388;13.390;2023-02-28T05:57:56;-3.00;89.43
47757;SHT35;22147;52.388;13.390;2023-02-28T06:00:26;-3.01;89.39
47757;SHT35;22147;52.388;13.390;2023-02-28T06:02:56;-3.03;89.45
47757;SHT35;22147;52.388;13.390;2023-02-28T06:05:29;-3.03;89.45
47757;SHT35;22147;52.388;13.390;2023-02-28T06:08:00;-3.04;89.44
47757;SHT35;22147;52.388;13.390;2023-02-28T06:10:28;-3.03;89.45
47757;SHT35;22147;52.388;13.390;2023-02-28T06:13:01;-3.04;89.42
47757;SHT35;22147;52.388;13.390;2023-02-28T06:15:32;-3.00;89.44
47757;SHT35;22147;52.388;13.390;2023-02-28T06:18:02;-3.01;89.44
47757;SHT35;22147;52.388;13.390;2023-02-28T06:20:33;-3.00;89.44
47757;SHT35;22147;52.388;13.390;2023-02-28T06:23:03;-2.99;89.46
47757;SHT35;22147;52.388;13.390;2023-02-28T06:25:33;-2.99;89.46
47757;SHT35;22147;52.388;13.390;2023-02-28T06:28:03;-2.92;89.43
47757;SHT35;22147;52.388;13.390;2023-02-28T06:30:34;-2.89;89.45
47757;SHT35;22147;52.388;13.390;2023-02-28T06:33:04;-2.85;89.40
47757;SHT35;22147;52.388;13.390;2023-02-28T06:35:34;-2.83;89.33
47757;SHT35;22147;52.388;13.390;2023-02-28T06:38:05;-2.80;89.30
47757;SHT35;22147;52.388;13.390;2023-02-28T06:40:35;-2.79;89.29
47757;SHT35;22147;52.388;13.390;2023-02-28T06:43:05;-2.72;89.23
47757;SHT35;22147;52.388;13.390;2023-02-28T06:45:35;-2.68;89.26
47757;SHT35;22147;52.388;13.390;2023-02-28T06:48:05;-2.65;89.21
47757;SHT35;22147;52.388;13.390;2023-02-28T06:50:36;-2.59;89.22
47757;SHT35;22147;52.388;13.390;2023-02-28T06:53:07;-2.52;89.20
47757;SHT35;22147;52.388;13.390;2023-02-28T06:55:39;-2.51;89.19
47757;SHT35;22147;52.388;13.390;2023-02-28T06:58:09;-2.41;89.17
47757;SHT35;22147;52.388;13.390;2023-02-28T07:00:51;-2.37;89.10
47757;SHT35;22147;52.388;13.390;2023-02-28T07:03:22;-2.30;89.12
47757;SHT35;22147;52.388;13.390;2023-02-28T07:05:52;-2.23;89.17
47757;SHT35;22147;52.388;13.390;2023-02-28T07:08:24;-2.13;89.21
47757;SHT35;22147;52.388;13.390;2023-02-28T07:10:56;-2.07;89.16
47757;SHT35;22147;52.388;13.390;2023-02-28T07:13:26;-1.99;89.16
47757;SHT35;22147;52.388;13.390;2023-02-28T07:16:04;-1.89;89.11
47757;SHT35;22147;52.388;13.390;2023-02-28T07:18:36;-1.78;89.16
47757;SHT35;22147;52.388;13.390;2023-02-28T07:21:10;-1.63;89.07
47757;SHT35;22147;52.388;13.390;2023-02-28T07:23:40;-1.44;89.02
47757;SHT35;22147;52.388;13.390;2023-02-28T07:26:17;-1.27;88.74
47757;SHT35;22147;52.388;13.390;2023-02-28T07:28:49;-1.03;88.33
47757;SHT35;22147;52.388;13.390;2023-02-28T07:31:19;-0.76;87.35
47757;SHT35;22147;52.388;13.390;2023-02-28T07:33:50;-0.53;86.69
47757;SHT35;22147;52.388;13.390;2023-02-28T07:36:20;-0.25;85.96
47757;SHT35;22147;52.388;13.390;2023-02-28T07:38:50;0.05;85.18
47757;SHT35;22147;52.388;13.390;2023-02-28T07:41:22;0.36;84.47
47757;SHT35;22147;52.388;13.390;2023-02-28T07:43:54;0.66;82.47
47757;SHT35;22147;52.388;13.390;2023-02-28T07:46:29;0.99;81.11
47757;SHT35;22147;52.388;13.390;2023-02-28T07:49:05;1.30;79.54
47757;SHT35;22147;52.388;13.390;2023-02-28T07:51:36;1.61;77.75
47757;SHT35;22147;52.388;13.390;2023-02-28T07:54:06;1.81;73.51
47757;SHT35;22147;52.388;13.390;2023-02-28T07:56:36;2.12;73.08
47757;SHT35;22147;52.388;13.390;2023-02-28T07:59:06;2.25;69.11
47757;SHT35;22147;52.388;13.390;2023-02-28T08:01:36;2.73;66.81
47757;SHT35;22147;52.388;13.390;2023-02-28T08:04:06;3.09;62.99
47757;SHT35;22147;52.388;13.390;2023-02-28T08:06:36;3.25;64.11
47757;SHT35;22147;52.388;13.390;2023-02-28T08:09:06;3.19;62.30
47757;SHT35;22147;52.388;13.390;2023-02-28T08:11:35;3.52;64.48
47757;SHT35;22147;52.388;13.390;2023-02-28T08:14:03;4.09;58.54
47757;SHT35;22147;52.388;13.390;2023-02-28T08:16:31;4.08;57.77
47757;SHT35;22147;52.388;13.390;2023-02-28T08:19:00;4.41;53.62
47757;SHT35;22147;52.388;13.390;2023-02-28T08:21:28;4.31;53.61
47757;SHT35;22147;52.388;13.390;2023-02-28T08:23:56;4.26;55.19
47757;SHT35;22147;52.388;13.390;2023-02-28T08:26:25;4.31;56.16
47757;SHT35;22147;52.388;13.390;2023-02-28T08:28:53;4.25;56.84
47757;SHT35;22147;52.388;13.390;2023-02-28T08:31:25;4.80;56.59
47757;SHT35;22147;52.388;13.390;2023-02-28T08:33:56;4.79;57.03
47757;SHT35;22147;52.388;13.390;2023-02-28T08:36:28;5.08;56.20
47757;SHT35;22147;52.388;13.390;2023-02-28T08:38:58;4.74;57.81
47757;SHT35;22147;52.388;13.390;2023-02-28T08:41:29;4.97;59.12
47757;SHT35;22147;52.388;13.390;2023-02-28T08:44:00;5.24;56.75
47757;SHT35;22147;52.388;13.390;2023-02-28T08:46:31;5.21;52.71
47757;SHT35;22147;52.388;13.390;2023-02-28T08:49:01;4.95;55.11
47757;SHT35;22147;52.388;13.390;2023-02-28T08:51:31;5.49;51.85
47757;SHT35;22147;52.388;13.390;2023-02-28T08:54:02;5.66;52.41
47757;SHT35;22147;52.388;13.390;2023-02-28T08:56:32;5.86;52.95
47757;SHT35;22147;52.388;13.390;2023-02-28T08:59:02;6.24;50.59
47757;SHT35;22147;52.388;13.390;2023-02-28T09:01:32;6.32;50.24
47757;SHT35;22147;52.388;13.390;2023-02-28T09:04:03;6.31;51.00
47757;SHT35;22147;52.388;13.390;2023-02-28T09:06:33;6.69;49.49
47757;SHT35;22147;52.388;13.390;2023-02-28T09:09:03;7.07;47.60
47757;SHT35;22147;52.388;13.390;2023-02-28T09:11:37;7.30;44.74
47757;SHT35;22147;52.388;13.390;2023-02-28T09:14:07;7.13;44.34
47757;SHT35;22147;52.388;13.390;2023-02-28T09:16:37;7.16;44.77
47757;SHT35;22147;52.388;13.390;2023-02-28T09:19:12;7.16;46.38
47757;SHT35;22147;52.388;13.390;2023-02-28T09:21:42;7.50;46.09
47757;SHT35;22147;52.388;13.390;2023-02-28T09:24:12;7.41;46.32
47757;SHT35;22147;52.388;13.390;2023-02-28T09:26:44;7.61;42.67
47757;SHT35;22147;52.388;13.390;2023-02-28T09:29:34;7.89;42.35
47757;SHT35;22147;52.388;13.390;2023-02-28T09:32:05;8.14;40.66
47757;SHT35;22147;52.388;13.390;2023-02-28T09:34:35;7.26;43.04
47757;SHT35;22147;52.388;13.390;2023-02-28T09:37:07;7.55;43.90
47757;SHT35;22147;52.388;13.390;2023-02-28T09:39:35;7.62;43.55
47757;SHT35;22147;52.388;13.390;2023-02-28T09:42:21;7.40;43.15
47757;SHT35;22147;52.388;13.390;2023-02-28T09:44:53;6.83;43.73
47757;SHT35;22147;52.388;13.390;2023-02-28T09:47:40;6.68;44.90
47757;SHT35;22147;52.388;13.390;2023-02-28T09:50:41;6.78;45.43
47757;SHT35;22147;52.388;13.390;2023-02-28T09:53:41;7.32;42.34
47757;SHT35;22147;52.388;13.390;2023-02-28T09:56:30;7.21;43.17
47757;SHT35;22147;52.388;13.390;2023-02-28T10:02:20;7.34;41.86
47757;SHT35;22147;52.388;13.390;2023-02-28T10:05:13;6.71;43.22
47757;SHT35;22147;52.388;13.390;2023-02-28T10:08:18;7.11;42.09
47757;SHT35;22147;52.388;13.390;2023-02-28T10:11:01;7.64;41.76
47757;SHT35;22147;52.388;13.390;2023-02-28T10:16:33;7.88;42.30
47757;SHT35;22147;52.388;13.390;2023-02-28T10:19:40;8.24;41.99
47757;SHT35;22147;52.388;13.390;2023-02-28T10:22:29;8.64;38.44
47757;SHT35;22147;52.388;13.390;2023-02-28T10:25:21;8.55;37.65
47757;SHT35;22147;52.388;13.390;2023-02-28T10:28:10;8.34;38.81
47757;SHT35;22147;52.388;13.390;2023-02-28T10:30:52;7.78;39.83
47757;SHT35;22147;52.388;13.390;2023-02-28T10:33:35;7.76;39.24
47757;SHT35;22147;52.388;13.390;2023-02-28T10:36:08;8.19;39.44
47757;SHT35;22147;52.388;13.390;2023-02-28T10:38:40;8.54;37.29
47757;SHT35;22147;52.388;13.390;2023-02-28T10:41:32;8.10;38.02
47757;SHT35;22147;52.388;13.390;2023-02-28T10:44:23;7.83;41.25
47757;SHT35;22147;52.388;13.390;2023-02-28T10:46:53;7.97;41.10
47757;SHT35;22147;52.388;13.390;2023-02-28T10:49:27;8.60;38.70
47757;SHT35;22147;52.388;13.390;2023-02-28T10:52:00;8.89;38.94
47757;SHT35;22147;52.388;13.390;2023-02-28T10:54:36;8.84;38.55
47757;SHT35;22147;52.388;13.390;2023-02-28T10:57:22;8.33;40.00
47757;SHT35;22147;52.388;13.390;2023-02-28T11:00:17;8.40;40.32
47757;SHT35;22147;52.388;13.390;2023-02-28T11:02:48;8.07;39.40
47757;SHT35;22147;52.388;13.390;2023-02-28T11:05:30;8.19;39.19
47757;SHT35;22147;52.388;13.390;2023-02-28T11:08:17;8.10;41.79
47757;SHT35;22147;52.388;13.390;2023-02-28T11:10:59;7.44;40.33
47757;SHT35;22147;52.388;13.390;2023-02-28T11:13:36;7.59;41.32
47757;SHT35;22147;52.388;13.390;2023-02-28T11:16:13;7.16;42.21
47757;SHT35;22147;52.388;13.390;2023-02-28T11:18:55;7.81;41.25
47757;SHT35;22147;52.388;13.390;2023-02-28T11:21:34;8.27;38.65
47757;SHT35;22147;52.388;13.390;2023-02-28T11:24:37;7.81;41.11
47757;SHT35;22147;52.388;13.390;2023-02-28T11:27:47;7.97;39.81
47757;SHT35;22147;52.388;13.390;2023-02-28T11:30:40;7.24;41.15
47757;SHT35;22147;52.388;13.390;2023-02-28T11:33:40;7.64;42.85
47757;SHT35;22147;52.388;13.390;2023-02-28T11:36:31;7.59;41.58
47757;SHT35;22147;52.388;13.390;2023-02-28T11:39:12;7.38;42.04
47757;SHT35;22147;52.388;13.390;2023-02-28T11:42:10;7.21;41.61
47757;SHT35;22147;52.388;13.390;2023-02-28T11:51:48;7.16;41.21
47757;SHT35;22147;52.388;13.390;2023-02-28T11:58:51;6.86;42.07
47757;SHT35;22147;52.388;13.390;2023-02-28T12:10:29;6.49;44.00
47757;SHT35;22147;52.388;13.390;2023-02-28T12:16:41;6.13;44.44
47757;SHT35;22147;52.388;13.390;2023-02-28T12:28:25;6.67;42.10
47757;SHT35;22147;52.388;13.390;2023-02-28T12:33:55;6.22;43.79
47757;SHT35;22147;52.388;13.390;2023-02-28T12:36:27;6.13;44.10
47757;SHT35;22147;52.388;13.390;2023-02-28T12:39:19;6.22;44.55
47757;SHT35;22147;52.388;13.390;2023-02-28T12:42:26;7.01;42.26
47757;SHT35;22147;52.388;13.390;2023-02-28T12:45:20;6.92;42.59
47757;SHT35;22147;52.388;13.390;2023-02-28T12:48:04;6.61;42.33
47757;SHT35;22147;52.388;13.390;2023-02-28T12:50:34;6.06;44.14
47757;SHT35;22147;52.388;13.390;2023-02-28T12:53:26;6.14;45.44
47757;SHT35;22147;52.388;13.390;2023-02-28T12:56:27;6.30;44.58
47757;SHT35;22147;52.388;13.390;2023-02-28T13:09:08;6.71;43.68
47757;SHT35;22147;52.388;13.390;2023-02-28T13:11:48;7.09;41.88
47757;SHT35;22147;52.388;13.390;2023-02-28T13:14:28;7.06;42.37
47757;SHT35;22147;52.388;13.390;2023-02-28T13:22:46;6.48;43.91
47757;SHT35;22147;52.388;13.390;2023-02-28T13:27:55;7.26;41.62
47757;SHT35;22147;52.388;13.390;2023-02-28T13:33:33;7.14;45.85
47757;SHT35;22147;52.388;13.390;2023-02-28T13:38:54;7.72;41.19
47757;SHT35;22147;52.388;13.390;2023-02-28T13:47:55;7.20;42.25
47757;SHT35;22147;52.388;13.390;2023-02-28T13:59:49;8.09;40.50
47757;SHT35;22147;52.388;13.390;2023-02-28T14:05:24;8.63;40.28
47757;SHT35;22147;52.388;13.390;2023-02-28T14:08:08;8.63;40.18
47757;SHT35;22147;52.388;13.390;2023-02-28T14:11:08;8.78;38.56
47757;SHT35;22147;52.388;13.390;2023-02-28T14:13:45;8.41;39.74
47757;SHT35;22147;52.388;13.390;2023-02-28T14:16:26;8.48;39.86
47757;SHT35;22147;52.388;13.390;2023-02-28T14:19:33;8.43;40.51
47757;SHT35;22147;52.388;13.390;2023-02-28T14:30:03;8.30;39.89
47757;SHT35;22147;52.388;13.390;2023-02-28T14:33:19;9.16;39.00
47757;SHT35;22147;52.388;13.390;2023-02-28T14:36:04;9.54;37.17
47757;SHT35;22147;52.388;13.390;2023-02-28T14:38:55;9.29;38.86
47757;SHT35;22147;52.388;13.390;2023-02-28T14:41:41;9.18;36.82
47757;SHT35;22147;52.388;13.390;2023-02-28T14:44:22;9.74;36.26
47757;SHT35;22147;52.388;13.390;2023-02-28T14:47:02;9.98;36.46
47757;SHT35;22147;52.388;13.390;2023-02-28T14:49:44;10.38;35.92
47757;SHT35;22147;52.388;13.390;2023-02-28T14:52:33;10.69;34.91
47757;SHT35;22147;52.388;13.390;2023-02-28T14:55:14;10.67;34.52
47757;SHT35;22147;52.388;13.390;2023-02-28T14:58:05;10.06;35.44
47757;SHT35;22147;52.388;13.390;2023-02-28T15:00:48;9.36;37.64
47757;SHT35;22147;52.388;13.390;2023-02-28T15:03:34;8.27;39.24
47757;SHT35;22147;52.388;13.390;2023-02-28T15:06:17;8.63;39.40
47757;SHT35;22147;52.388;13.390;2023-02-28T15:08:47;8.88;38.72
47757;SHT35;22147;52.388;13.390;2023-02-28T15:11:20;9.09;36.86
47757;SHT35;22147;52.388;13.390;2023-02-28T15:13:54;8.75;37.00
47757;SHT35;22147;52.388;13.390;2023-02-28T15:16:38;7.85;40.17
47757;SHT35;22147;52.388;13.390;2023-02-28T15:19:33;7.69;40.48
47757;SHT35;22147;52.388;13.390;2023-02-28T15:22:13;7.69;40.32
47757;SHT35;22147;52.388;13.390;2023-02-28T15:24:51;7.31;40.78
47757;SHT35;22147;52.388;13.390;2023-02-28T15:27:33;6.85;43.89
47757;SHT35;22147;52.388;13.390;2023-02-28T15:30:17;6.53;43.44
47757;SHT35;22147;52.388;13.390;2023-02-28T15:33:29;6.40;44.40
47757;SHT35;22147;52.388;13.390;2023-02-28T15:36:31;6.31;45.39
47757;SHT35;22147;52.388;13.390;2023-02-28T15:39:00;6.14;45.00
47757;SHT35;22147;52.388;13.390;2023-02-28T15:41:44;6.20;45.21
47757;SHT35;22147;52.388;13.390;2023-02-28T15:44:33;6.07;45.79
47757;SHT35;22147;52.388;13.390;2023-02-28T15:47:20;5.70;45.65
47757;SHT35;22147;52.388;13.390;2023-02-28T15:50:01;5.76;46.63
47757;SHT35;22147;52.388;13.390;2023-02-28T15:52:43;5.69;46.43
47757;SHT35;22147;52.388;13.390;2023-02-28T15:55:22;5.74;46.57
47757;SHT35;22147;52.388;13.390;2023-02-28T15:57:57;5.52;46.70
47757;SHT35;22147;52.388;13.390;2023-02-28T16:00:31;5.31;47.57
47757;SHT35;22147;52.388;13.390;2023-02-28T16:03:38;5.08;48.41
47757;SHT35;22147;52.388;13.390;2023-02-28T16:07:04;4.77;49.96
47757;SHT35;22147;52.388;13.390;2023-02-28T16:09:34;4.87;48.83
47757;SHT35;22147;52.388;13.390;2023-02-28T16:12:03;4.62;49.76
47757;SHT35;22147;52.388;13.390;2023-02-28T16:14:35;4.49;50.60
47757;SHT35;22147;52.388;13.390;2023-02-28T16:17:25;4.39;50.82
47757;SHT35;22147;52.388;13.390;2023-02-28T16:19:55;4.34;50.99
47757;SHT35;22147;52.388;13.390;2023-02-28T16:22:26;4.22;51.91
47757;SHT35;22147;52.388;13.390;2023-02-28T16:24:54;4.08;52.63
47757;SHT35;22147;52.388;13.390;2023-02-28T16:27:36;4.04;52.31
47757;SHT35;22147;52.388;13.390;2023-02-28T16:30:21;3.94;52.66
47757;SHT35;22147;52.388;13.390;2023-02-28T16:32:55;3.81;53.53
47757;SHT35;22147;52.388;13.390;2023-02-28T16:35:25;3.74;52.93
47757;SHT35;22147;52.388;13.390;2023-02-28T16:37:55;3.60;53.52
47757;SHT35;22147;52.388;13.390;2023-02-28T16:40:26;3.63;54.07
47757;SHT35;22147;52.388;13.390;2023-02-28T16:43:05;3.57;54.64
47757;SHT35;22147;52.388;13.390;2023-02-28T16:45:37;3.44;54.81
47757;SHT35;22147;52.388;13.390;2023-02-28T16:48:15;3.30;55.59
47757;SHT35;22147;52.388;13.390;2023-02-28T16:50:44;3.16;56.39
47757;SHT35;22147;52.388;13.390;2023-02-28T16:53:14;3.19;55.31
47757;SHT35;22147;52.388;13.390;2023-02-28T16:55:45;3.04;57.65
47757;SHT35;22147;52.388;13.390;2023-02-28T16:58:16;2.92;57.18
47757;SHT35;22147;52.388;13.390;2023-02-28T17:00:47;2.81;57.73
47757;SHT35;22147;52.388;13.390;2023-02-28T17:03:27;2.67;59.32
47757;SHT35;22147;52.388;13.390;2023-02-28T17:06:04;2.49;60.61
47757;SHT35;22147;52.388;13.390;2023-02-28T17:08:34;2.37;60.67
47757;SHT35;22147;52.388;13.390;2023-02-28T17:11:04;2.23;61.49
47757;SHT35;22147;52.388;13.390;2023-02-28T17:13:34;2.12;61.93
47757;SHT35;22147;52.388;13.390;2023-02-28T17:16:05;2.02;63.00
47757;SHT35;22147;52.388;13.390;2023-02-28T17:18:36;1.88;63.37
47757;SHT35;22147;52.388;13.390;2023-02-28T17:21:16;1.77;64.46
47757;SHT35;22147;52.388;13.390;2023-02-28T17:23:46;1.61;65.02
47757;SHT35;22147;52.388;13.390;2023-02-28T17:26:21;1.53;65.66
47757;SHT35;22147;52.388;13.390;2023-02-28T17:28:54;1.39;65.85
47757;SHT35;22147;52.388;13.390;2023-02-28T17:31:27;1.29;66.70
47757;SHT35;22147;52.388;13.390;2023-02-28T17:33:57;1.19;67.27
47757;SHT35;22147;52.388;13.390;2023-02-28T17:36:27;1.11;67.71
47757;SHT35;22147;52.388;13.390;2023-02-28T17:38:58;1.02;68.56
47757;SHT35;22147;52.388;13.390;2023-02-28T17:41:28;0.93;68.94
47757;SHT35;22147;52.388;13.390;2023-02-28T17:43:59;0.82;69.19
47757;SHT35;22147;52.388;13.390;2023-02-28T17:46:28;0.76;69.82
47757;SHT35;22147;52.388;13.390;2023-02-28T17:48:56;0.68;70.25
47757;SHT35;22147;52.388;13.390;2023-02-28T17:51:25;0.60;69.93
47757;SHT35;22147;52.388;13.390;2023-02-28T17:53:53;0.55;70.46
47757;SHT35;22147;52.388;13.390;2023-02-28T17:56:25;0.47;71.02
47757;SHT35;22147;52.388;13.390;2023-02-28T17:58:56;0.38;71.17
47757;SHT35;22147;52.388;13.390;2023-02-28T18:01:27;0.34;71.01
47757;SHT35;22147;52.388;13.390;2023-02-28T18:03:57;0.27;71.52
47757;SHT35;22147;52.388;13.390;2023-02-28T18:06:43;0.18;72.32
47757;SHT35;22147;52.388;13.390;2023-02-28T18:09:22;0.13;72.48
47757;SHT35;22147;52.388;13.390;2023-02-28T18:11:55;0.07;72.53
47757;SHT35;22147;52.388;13.390;2023-02-28T18:14:26;0.03;72.97
47757;SHT35;22147;52.388;13.390;2023-02-28T18:16:56;-0.05;73.34
47757;SHT35;22147;52.388;13.390;2023-02-28T18:19:27;-0.11;73.20
47757;SHT35;22147;52.388;13.390;2023-02-28T18:21:57;-0.18;73.42
47757;SHT35;22147;52.388;13.390;2023-02-28T18:24:27;-0.25;73.84
47757;SHT35;22147;52.388;13.390;2023-02-28T18:26:55;-0.29;73.88
47757;SHT35;22147;52.388;13.390;2023-02-28T18:29:27;-0.33;74.30
47757;SHT35;22147;52.388;13.390;2023-02-28T18:31:56;-0.39;74.54